sensor_id;sensor_type;location;lat;lon;timestamp;pressure;altitude;pressure_sealevel;temperature;humidity
72308;BME280;60257;42.638;23.376;2023-11-21T00:02:23;94482.19;;;3.14;83.29
72308;BME280;60257;42.638;23.376;2023-11-21T00:04:48;94486.28;;;3.11;83.25
72308;BME280;60257;42.638;23.376;2023-11-21T00:07:14;94473.84;;;3.10;83.46
72308;BME280;60257;42.638;23.376;2023-11-21T00:09:40;94482.19;;;3.14;83.17
72308;BME280;60257;42.638;23.376;2023-11-21T00:12:07;94479.78;;;3.12;82.92
72308;BME280;60257;42.638;23.376;2023-11-21T00:14:36;94481.59;;;3.17;82.87
72308;BME280;60257;42.638;23.376;2023-11-21T00:17:02;94476.03;;;3.22;83.22
72308;BME280;60257;42.638;23.376;2023-11-21T00:19:27;94468.63;;;3.14;82.78
72308;BME280;60257;42.638;23.376;2023-11-21T00:21:56;94479.69;;;3.17;83.06
72308;BME280;60257;42.638;23.376;2023-11-21T00:24:23;94482.69;;;3.16;82.94
72308;BME280;60257;42.638;23.376;2023-11-21T00:26:50;94476.16;;;3.17;82.55
72308;BME280;60257;42.638;23.376;2023-11-21T00:29:15;94479.97;;;3.16;83.15
72308;BME280;60257;42.638;23.376;2023-11-21T00:31:43;94472.16;;;3.14;83.65
72308;BME280;60257;42.638;23.376;2023-11-21T00:34:09;94470.03;;;3.11;83.20
72308;BME280;60257;42.638;23.376;2023-11-21T00:36:34;94464.63;;;3.11;83.26
72308;BME280;60257;42.638;23.376;2023-11-21T00:39:00;94468.13;;;3.12;83.55
72308;BME280;60257;42.638;23.376;2023-11-21T00:41:28;94468.94;;;3.12;83.46
72308;BME280;60257;42.638;23.376;2023-11-21T00:43:53;94464.44;;;3.07;83.86
72308;BME280;60257;42.638;23.376;2023-11-21T00:46:20;94467.03;;;3.13;83.06
72308;BME280;60257;42.638;23.376;2023-11-21T00:48:45;94471.94;;;3.10;83.21
72308;BME280;60257;42.638;23.376;2023-11-21T00:51:11;94477.31;;;3.02;83.02
72308;BME280;60257;42.638;23.376;2023-11-21T00:53:36;94479.00;;;2.98;83.41
72308;BME280;60257;42.638;23.376;2023-11-21T00:56:02;94474.13;;;2.86;84.03
72308;BME280;60257;42.638;23.376;2023-11-21T00:58:28;94471.88;;;2.88;84.08
72308;BME280;60257;42.638;23.376;2023-11-21T01:00:53;94467.09;;;2.85;84.39
72308;BME280;60257;42.638;23.376;2023-11-21T01:03:19;94460.66;;;2.81;84.70
72308;BME280;60257;42.638;23.376;2023-11-21T01:05:45;94462.38;;;2.77;85.36
72308;BME280;60257;42.638;23.376;2023-11-21T01:08:11;94455.97;;;2.73;85.70
72308;BME280;60257;42.638;23.376;2023-11-21T01:10:37;94460.69;;;2.67;86.08
72308;BME280;60257;42.638;23.376;2023-11-21T01:13:03;94459.50;;;2.60;86.23
72308;BME280;60257;42.638;23.376;2023-11-21T01:15:30;94456.97;;;2.50;86.06
72308;BME280;60257;42.638;23.376;2023-11-21T01:17:55;94459.97;;;2.48;86.49
72308;BME280;60257;42.638;23.376;2023-11-21T01:20:21;94461.13;;;2.47;86.98
72308;BME280;60257;42.638;23.376;2023-11-21T01:22:46;94463.00;;;2.47;87.21
72308;BME280;60257;42.638;23.376;2023-11-21T01:25:14;94454.69;;;2.43;87.40
72308;BME280;60257;42.638;23.376;2023-11-21T01:27:41;94468.03;;;2.53;87.58
72308;BME280;60257;42.638;23.376;2023-11-21T01:30:07;94453.19;;;2.51;87.50
72308;BME280;60257;42.638;23.376;2023-11-21T01:32:34;94451.47;;;2.55;87.11
72308;BME280;60257;42.638;23.376;2023-11-21T01:34:59;94443.94;;;2.52;87.32
72308;BME280;60257;42.638;23.376;2023-11-21T01:37:25;94452.47;;;2.59;87.16
72308;BME280;60257;42.638;23.376;2023-11-21T01:39:56;94450.56;;;2.59;87.21
72308;BME280;60257;42.638;23.376;2023-11-21T01:42:21;94455.47;;;2.57;87.52
72308;BME280;60257;42.638;23.376;2023-11-21T01:44:46;94455.28;;;2.54;87.57
72308;BME280;60257;42.638;23.376;2023-11-21T01:47:13;94471.13;;;2.60;87.28
72308;BME280;60257;42.638;23.376;2023-11-21T01:49:39;94465.41;;;2.62;87.04
72308;BME280;60257;42.638;23.376;2023-11-21T01:52:05;94458.38;;;2.61;87.17
72308;BME280;60257;42.638;23.376;2023-11-21T01:54:32;94447.84;;;2.59;87.08
72308;BME280;60257;42.638;23.376;2023-11-21T01:56:58;94432.41;;;2.60;87.04
72308;BME280;60257;42.638;23.376;2023-11-21T01:59:34;94432.22;;;2.56;86.74
72308;BME280;60257;42.638;23.376;2023-11-21T02:02:00;94448.38;;;2.61;87.06
72308;BME280;60257;42.638;23.376;2023-11-21T02:04:26;94446.53;;;2.57;87.07
72308;BME280;60257;42.638;23.376;2023-11-21T02:06:52;94439.53;;;2.56;87.45
72308;BME280;60257;42.638;23.376;2023-11-21T02:09:24;94442.97;;;2.48;87.84
72308;BME280;60257;42.638;23.376;2023-11-21T02:11:49;94443.34;;;2.41;87.94
72308;BME280;60257;42.638;23.376;2023-11-21T02:14:15;94457.19;;;2.40;87.96
72308;BME280;60257;42.638;23.376;2023-11-21T02:16:40;94454.78;;;2.38;88.39
72308;BME280;60257;42.638;23.376;2023-11-21T02:19:07;94451.00;;;2.39;88.55
72308;BME280;60257;42.638;23.376;2023-11-21T02:21:34;94437.84;;;2.32;88.23
72308;BME280;60257;42.638;23.376;2023-11-21T02:24:01;94450.47;;;2.37;88.31
72308;BME280;60257;42.638;23.376;2023-11-21T02:26:26;94454.00;;;2.38;88.26
72308;BME280;60257;42.638;23.376;2023-11-21T02:28:52;94446.88;;;2.28;88.31
72308;BME280;60257;42.638;23.376;2023-11-21T02:31:18;94439.84;;;2.27;88.51
72308;BME280;60257;42.638;23.376;2023-11-21T02:33:44;94444.16;;;2.28;88.51
72308;BME280;60257;42.638;23.376;2023-11-21T02:36:09;94445.88;;;2.24;88.80
72308;BME280;60257;42.638;23.376;2023-11-21T02:38:35;94443.47;;;2.22;88.81
72308;BME280;60257;42.638;23.376;2023-11-21T02:41:00;94439.84;;;2.13;88.80
72308;BME280;60257;42.638;23.376;2023-11-21T02:43:26;94443.88;;;2.16;88.92
72308;BME280;60257;42.638;23.376;2023-11-21T02:45:51;94449.28;;;2.16;89.40
72308;BME280;60257;42.638;23.376;2023-11-21T02:48:16;94444.75;;;2.11;89.52
72308;BME280;60257;42.638;23.376;2023-11-21T02:50:42;94450.25;;;2.06;89.75
72308;BME280;60257;42.638;23.376;2023-11-21T02:53:08;94441.94;;;2.03;89.79
72308;BME280;60257;42.638;23.376;2023-11-21T02:55:36;94447.44;;;2.11;89.59
72308;BME280;60257;42.638;23.376;2023-11-21T02:58:02;94443.94;;;2.11;89.71
72308;BME280;60257;42.638;23.376;2023-11-21T03:00:29;94438.03;;;2.09;89.62
72308;BME280;60257;42.638;23.376;2023-11-21T03:02:55;94443.81;;;2.02;89.93
72308;BME280;60257;42.638;23.376;2023-11-21T03:05:21;94448.94;;;2.04;90.01
72308;BME280;60257;42.638;23.376;2023-11-21T03:07:47;94434.13;;;2.01;90.42
72308;BME280;60257;42.638;23.376;2023-11-21T03:10:13;94424.19;;;1.97;90.28
72308;BME280;60257;42.638;23.376;2023-11-21T03:12:39;94441.53;;;1.96;90.58
72308;BME280;60257;42.638;23.376;2023-11-21T03:15:06;94439.91;;;1.94;91.20
72308;BME280;60257;42.638;23.376;2023-11-21T03:17:31;94431.31;;;1.92;90.75
72308;BME280;60257;42.638;23.376;2023-11-21T03:19:59;94436.41;;;1.94;90.30
72308;BME280;60257;42.638;23.376;2023-11-21T03:22:25;94426.28;;;1.86;90.32
72308;BME280;60257;42.638;23.376;2023-11-21T03:24:50;94448.34;;;1.93;90.42
72308;BME280;60257;42.638;23.376;2023-11-21T03:27:15;94454.75;;;1.97;90.48
72308;BME280;60257;42.638;23.376;2023-11-21T03:29:41;94446.13;;;1.95;90.63
72308;BME280;60257;42.638;23.376;2023-11-21T03:32:07;94453.47;;;2.08;90.30
72308;BME280;60257;42.638;23.376;2023-11-21T03:34:32;94463.97;;;2.10;90.35
72308;BME280;60257;42.638;23.376;2023-11-21T03:36:58;94459.97;;;2.07;90.57
72308;BME280;60257;42.638;23.376;2023-11-21T03:39:24;94456.19;;;2.08;90.48
72308;BME280;60257;42.638;23.376;2023-11-21T03:41:51;94454.56;;;2.07;90.31
72308;BME280;60257;42.638;23.376;2023-11-21T03:44:17;94446.47;;;2.07;90.31
72308;BME280;60257;42.638;23.376;2023-11-21T03:46:43;94438.03;;;2.09;89.95
72308;BME280;60257;42.638;23.376;2023-11-21T03:49:09;94447.16;;;2.13;89.88
72308;BME280;60257;42.638;23.376;2023-11-21T03:51:36;94438.25;;;2.12;89.82
72308;BME280;60257;42.638;23.376;2023-11-21T03:54:02;94440.75;;;2.09;89.95
72308;BME280;60257;42.638;23.376;2023-11-21T03:56:27;94430.81;;;2.04;90.34
72308;BME280;60257;42.638;23.376;2023-11-21T03:58:53;94423.00;;;2.03;90.36
72308;BME280;60257;42.638;23.376;2023-11-21T04:01:22;94429.59;;;1.97;91.05
72308;BME280;60257;42.638;23.376;2023-11-21T04:03:48;94438.75;;;2.01;90.93
72308;BME280;60257;42.638;23.376;2023-11-21T04:06:14;94428.91;;;1.91;91.09
72308;BME280;60257;42.638;23.376;2023-11-21T04:08:39;94428.97;;;1.86;91.35
72308;BME280;60257;42.638;23.376;2023-11-21T04:11:05;94423.16;;;1.79;91.70
72308;BME280;60257;42.638;23.376;2023-11-21T04:13:30;94424.56;;;1.76;91.77
72308;BME280;60257;42.638;23.376;2023-11-21T04:15:56;94413.34;;;1.69;91.67
72308;BME280;60257;42.638;23.376;2023-11-21T04:18:22;94422.75;;;1.72;91.87
72308;BME280;60257;42.638;23.376;2023-11-21T04:20:50;94408.41;;;1.58;92.26
72308;BME280;60257;42.638;23.376;2023-11-21T04:23:16;94427.66;;;1.70;92.50
72308;BME280;60257;42.638;23.376;2023-11-21T04:25:41;94434.66;;;1.71;92.67
72308;BME280;60257;42.638;23.376;2023-11-21T04:28:06;94425.16;;;1.73;92.63
72308;BME280;60257;42.638;23.376;2023-11-21T04:30:32;94430.97;;;1.80;92.58
72308;BME280;60257;42.638;23.376;2023-11-21T04:32:58;94421.88;;;1.76;92.46
72308;BME280;60257;42.638;23.376;2023-11-21T04:35:23;94437.56;;;1.74;92.62
72308;BME280;60257;42.638;23.376;2023-11-21T04:37:49;94433.78;;;1.75;92.76
72308;BME280;60257;42.638;23.376;2023-11-21T04:40:16;94421.59;;;1.78;92.50
72308;BME280;60257;42.638;23.376;2023-11-21T04:42:42;94425.06;;;1.78;92.42
72308;BME280;60257;42.638;23.376;2023-11-21T04:45:08;94406.47;;;1.77;92.71
72308;BME280;60257;42.638;23.376;2023-11-21T04:47:35;94417.56;;;1.75;92.36
72308;BME280;60257;42.638;23.376;2023-11-21T04:50:00;94430.38;;;1.70;92.76
72308;BME280;60257;42.638;23.376;2023-11-21T04:52:26;94430.56;;;1.73;93.00
72308;BME280;60257;42.638;23.376;2023-11-21T04:54:51;94434.78;;;1.79;92.88
72308;BME280;60257;42.638;23.376;2023-11-21T04:57:19;94433.50;;;1.77;92.59
72308;BME280;60257;42.638;23.376;2023-11-21T04:59:44;94432.47;;;1.73;92.63
72308;BME280;60257;42.638;23.376;2023-11-21T05:02:10;94423.94;;;1.66;92.68
72308;BME280;60257;42.638;23.376;2023-11-21T05:04:35;94430.84;;;1.72;92.89
72308;BME280;60257;42.638;23.376;2023-11-21T05:07:01;94431.28;;;1.79;92.78
72308;BME280;60257;42.638;23.376;2023-11-21T05:09:26;94442.00;;;1.84;93.26
72308;BME280;60257;42.638;23.376;2023-11-21T05:11:53;94434.38;;;1.86;93.02
72308;BME280;60257;42.638;23.376;2023-11-21T05:14:19;94431.09;;;1.89;92.67
72308;BME280;60257;42.638;23.376;2023-11-21T05:16:45;94409.97;;;1.91;92.61
72308;BME280;60257;42.638;23.376;2023-11-21T05:19:11;94406.97;;;1.92;92.44
72308;BME280;60257;42.638;23.376;2023-11-21T05:21:38;94424.00;;;2.07;92.31
72308;BME280;60257;42.638;23.376;2023-11-21T05:24:04;94420.41;;;2.11;92.08
72308;BME280;60257;42.638;23.376;2023-11-21T05:26:30;94404.97;;;2.12;91.88
72308;BME280;60257;42.638;23.376;2023-11-21T05:28:56;94410.59;;;2.15;91.70
72308;BME280;60257;42.638;23.376;2023-11-21T05:31:21;94422.63;;;2.23;91.26
72308;BME280;60257;42.638;23.376;2023-11-21T05:33:47;94423.91;;;2.25;90.91
72308;BME280;60257;42.638;23.376;2023-11-21T05:36:12;94427.00;;;2.32;90.77
72308;BME280;60257;42.638;23.376;2023-11-21T05:38:38;94432.94;;;2.35;90.52
72308;BME280;60257;42.638;23.376;2023-11-21T05:41:03;94434.13;;;2.28;90.73
72308;BME280;60257;42.638;23.376;2023-11-21T05:43:32;94411.88;;;2.18;90.51
72308;BME280;60257;42.638;23.376;2023-11-21T05:46:00;94437.34;;;2.30;90.78
72308;BME280;60257;42.638;23.376;2023-11-21T05:48:26;94436.25;;;2.31;90.67
72308;BME280;60257;42.638;23.376;2023-11-21T05:50:52;94435.13;;;2.32;90.48
72308;BME280;60257;42.638;23.376;2023-11-21T05:53:17;94434.03;;;2.33;90.58
72308;BME280;60257;42.638;23.376;2023-11-21T05:55:43;94426.81;;;2.29;90.65
72308;BME280;60257;42.638;23.376;2023-11-21T05:58:08;94430.91;;;2.26;90.52
72308;BME280;60257;42.638;23.376;2023-11-21T06:00:34;94434.25;;;2.23;90.41
72308;BME280;60257;42.638;23.376;2023-11-21T06:02:59;94434.44;;;2.27;90.91
72308;BME280;60257;42.638;23.376;2023-11-21T06:05:26;94432.63;;;2.22;91.09
72308;BME280;60257;42.638;23.376;2023-11-21T06:07:55;94435.53;;;2.26;90.97
72308;BME280;60257;42.638;23.376;2023-11-21T06:10:25;94435.34;;;2.36;90.87
72308;BME280;60257;42.638;23.376;2023-11-21T06:12:51;94428.63;;;2.33;90.48
72308;BME280;60257;42.638;23.376;2023-11-21T06:15:16;94436.44;;;2.35;90.61
72308;BME280;60257;42.638;23.376;2023-11-21T06:17:44;94449.84;;;2.40;91.02
72308;BME280;60257;42.638;23.376;2023-11-21T06:20:14;94449.78;;;2.45;91.02
72308;BME280;60257;42.638;23.376;2023-11-21T06:22:45;94445.97;;;2.46;90.73
72308;BME280;60257;42.638;23.376;2023-11-21T06:25:12;94452.59;;;2.54;90.54
72308;BME280;60257;42.638;23.376;2023-11-21T06:27:43;94438.75;;;2.55;89.67
72308;BME280;60257;42.638;23.376;2023-11-21T06:30:10;94455.88;;;2.64;90.07
72308;BME280;60257;42.638;23.376;2023-11-21T06:32:37;94457.06;;;2.72;89.93
72308;BME280;60257;42.638;23.376;2023-11-21T06:35:04;94456.16;;;2.77;89.64
72308;BME280;60257;42.638;23.376;2023-11-21T06:37:30;94454.44;;;2.81;89.15
72308;BME280;60257;42.638;23.376;2023-11-21T06:39:57;94460.75;;;2.90;88.72
72308;BME280;60257;42.638;23.376;2023-11-21T06:42:24;94463.88;;;2.83;88.77
72308;BME280;60257;42.638;23.376;2023-11-21T06:44:49;94463.34;;;2.95;89.15
72308;BME280;60257;42.638;23.376;2023-11-21T06:47:17;94462.44;;;2.99;88.90
72308;BME280;60257;42.638;23.376;2023-11-21T06:49:43;94465.16;;;2.99;89.35
72308;BME280;60257;42.638;23.376;2023-11-21T06:52:09;94459.13;;;3.02;89.29
72308;BME280;60257;42.638;23.376;2023-11-21T06:54:34;94462.91;;;3.15;89.15
72308;BME280;60257;42.638;23.376;2023-11-21T06:57:00;94469.81;;;3.21;88.76
72308;BME280;60257;42.638;23.376;2023-11-21T06:59:28;94454.88;;;3.24;88.48
72308;BME280;60257;42.638;23.376;2023-11-21T07:01:55;94478.41;;;3.37;87.98
72308;BME280;60257;42.638;23.376;2023-11-21T07:04:20;94481.41;;;3.35;87.35
72308;BME280;60257;42.638;23.376;2023-11-21T07:06:46;94474.75;;;3.41;87.25
72308;BME280;60257;42.638;23.376;2023-11-21T07:09:11;94475.34;;;3.52;87.19
72308;BME280;60257;42.638;23.376;2023-11-21T07:11:37;94470.91;;;3.56;86.98
72308;BME280;60257;42.638;23.376;2023-11-21T07:14:04;94466.84;;;3.67;86.51
72308;BME280;60257;42.638;23.376;2023-11-21T07:16:36;94461.47;;;3.76;85.80
72308;BME280;60257;42.638;23.376;2023-11-21T07:19:05;94453.34;;;3.76;85.62
72308;BME280;60257;42.638;23.376;2023-11-21T07:21:34;94448.88;;;3.80;85.43
72308;BME280;60257;42.638;23.376;2023-11-21T07:24:01;94456.22;;;3.79;85.58
72308;BME280;60257;42.638;23.376;2023-11-21T07:26:27;94452.28;;;3.85;85.88
72308;BME280;60257;42.638;23.376;2023-11-21T07:28:53;94457.06;;;3.88;84.62
72308;BME280;60257;42.638;23.376;2023-11-21T07:31:18;94463.38;;;3.98;85.01
72308;BME280;60257;42.638;23.376;2023-11-21T07:33:45;94465.81;;;4.08;85.19
72308;BME280;60257;42.638;23.376;2023-11-21T07:36:12;94464.56;;;4.14;84.34
72308;BME280;60257;42.638;23.376;2023-11-21T07:38:38;94461.41;;;4.20;84.07
72308;BME280;60257;42.638;23.376;2023-11-21T07:41:04;94459.69;;;4.24;84.11
72308;BME280;60257;42.638;23.376;2023-11-21T07:43:30;94461.31;;;4.34;84.08
72308;BME280;60257;42.638;23.376;2023-11-21T07:46:01;94446.81;;;4.39;84.14
72308;BME280;60257;42.638;23.376;2023-11-21T07:48:28;94457.72;;;4.47;83.53
72308;BME280;60257;42.638;23.376;2023-11-21T07:50:54;94459.97;;;4.54;82.96
72308;BME280;60257;42.638;23.376;2023-11-21T07:53:19;94433.63;;;4.54;82.51
72308;BME280;60257;42.638;23.376;2023-11-21T07:55:44;94452.16;;;4.61;82.60
72308;BME280;60257;42.638;23.376;2023-11-21T07:58:12;94447.84;;;4.60;82.97
72308;BME280;60257;42.638;23.376;2023-11-21T08:00:38;94431.72;;;4.63;83.36
72308;BME280;60257;42.638;23.376;2023-11-21T08:03:04;94443.09;;;4.74;82.70
72308;BME280;60257;42.638;23.376;2023-11-21T08:05:31;94434.94;;;4.74;83.16
72308;BME280;60257;42.638;23.376;2023-11-21T08:07:57;94424.06;;;4.74;82.38
72308;BME280;60257;42.638;23.376;2023-11-21T08:10:22;94421.56;;;4.86;81.60
72308;BME280;60257;42.638;23.376;2023-11-21T08:12:48;94412.75;;;4.89;81.72
72308;BME280;60257;42.638;23.376;2023-11-21T08:15:15;94416.94;;;4.95;81.92
72308;BME280;60257;42.638;23.376;2023-11-21T08:17:41;94429.72;;;4.86;82.38
72308;BME280;60257;42.638;23.376;2023-11-21T08:20:06;94417.72;;;4.96;82.77
72308;BME280;60257;42.638;23.376;2023-11-21T08:22:34;94433.56;;;5.11;82.42
72308;BME280;60257;42.638;23.376;2023-11-21T08:24:59;94437.09;;;5.12;81.37
72308;BME280;60257;42.638;23.376;2023-11-21T08:27:25;94418.06;;;5.29;80.51
72308;BME280;60257;42.638;23.376;2023-11-21T08:29:50;94434.88;;;5.22;80.68
72308;BME280;60257;42.638;23.376;2023-11-21T08:32:18;94439.00;;;5.11;81.76
72308;BME280;60257;42.638;23.376;2023-11-21T08:34:43;94421.91;;;5.19;81.37
72308;BME280;60257;42.638;23.376;2023-11-21T08:37:10;94428.31;;;5.40;81.78
72308;BME280;60257;42.638;23.376;2023-11-21T08:39:37;94422.41;;;5.47;80.87
72308;BME280;60257;42.638;23.376;2023-11-21T08:42:03;94428.47;;;5.61;80.99
72308;BME280;60257;42.638;23.376;2023-11-21T08:44:29;94426.38;;;5.75;80.50
72308;BME280;60257;42.638;23.376;2023-11-21T08:46:55;94416.47;;;5.88;79.51
72308;BME280;60257;42.638;23.376;2023-11-21T08:49:21;94420.31;;;5.96;78.02
72308;BME280;60257;42.638;23.376;2023-11-21T08:51:46;94423.78;;;5.96;77.86
72308;BME280;60257;42.638;23.376;2023-11-21T08:54:12;94419.31;;;6.00;78.08
72308;BME280;60257;42.638;23.376;2023-11-21T08:56:37;94420.91;;;6.10;77.23
72308;BME280;60257;42.638;23.376;2023-11-21T08:59:03;94418.16;;;6.18;76.87
72308;BME280;60257;42.638;23.376;2023-11-21T09:01:29;94414.44;;;6.23;77.11
72308;BME280;60257;42.638;23.376;2023-11-21T09:03:57;94404.69;;;6.22;76.32
72308;BME280;60257;42.638;23.376;2023-11-21T09:06:23;94403.19;;;6.33;76.15
72308;BME280;60257;42.638;23.376;2023-11-21T09:08:49;94384.28;;;6.37;75.18
72308;BME280;60257;42.638;23.376;2023-11-21T09:11:15;94379.31;;;6.39;74.72
72308;BME280;60257;42.638;23.376;2023-11-21T09:13:40;94376.22;;;6.49;74.93
72308;BME280;60257;42.638;23.376;2023-11-21T09:16:06;94364.84;;;6.47;75.11
72308;BME280;60257;42.638;23.376;2023-11-21T09:18:31;94354.06;;;6.50;76.00
72308;BME280;60257;42.638;23.376;2023-11-21T09:20:57;94351.22;;;6.47;76.61
72308;BME280;60257;42.638;23.376;2023-11-21T09:23:23;94353.00;;;6.43;76.34
72308;BME280;60257;42.638;23.376;2023-11-21T09:25:49;94352.88;;;6.39;76.90
72308;BME280;60257;42.638;23.376;2023-11-21T09:28:15;94327.88;;;6.37;76.72
72308;BME280;60257;42.638;23.376;2023-11-21T09:30:42;94342.84;;;6.23;77.52
72308;BME280;60257;42.638;23.376;2023-11-21T09:33:09;94334.50;;;6.28;77.95
72308;BME280;60257;42.638;23.376;2023-11-21T09:35:37;94318.25;;;6.40;77.29
72308;BME280;60257;42.638;23.376;2023-11-21T09:38:03;94307.50;;;6.43;77.06
72308;BME280;60257;42.638;23.376;2023-11-21T09:40:35;94311.16;;;6.47;76.96
72308;BME280;60257;42.638;23.376;2023-11-21T09:43:06;94308.78;;;6.46;76.77
72308;BME280;60257;42.638;23.376;2023-11-21T09:45:38;94298.88;;;6.41;77.11
72308;BME280;60257;42.638;23.376;2023-11-21T09:48:04;94299.84;;;6.37;77.21
72308;BME280;60257;42.638;23.376;2023-11-21T09:50:32;94299.53;;;6.38;77.11
72308;BME280;60257;42.638;23.376;2023-11-21T09:53:15;94296.09;;;6.50;78.07
72308;BME280;60257;42.638;23.376;2023-11-21T09:55:46;94276.88;;;6.67;76.62
72308;BME280;60257;42.638;23.376;2023-11-21T09:58:13;94278.91;;;6.58;76.78
72308;BME280;60257;42.638;23.376;2023-11-21T10:00:43;94264.47;;;6.78;76.02
72308;BME280;60257;42.638;23.376;2023-11-21T10:03:10;94272.06;;;6.93;75.74
72308;BME280;60257;42.638;23.376;2023-11-21T10:05:36;94255.72;;;7.06;76.06
72308;BME280;60257;42.638;23.376;2023-11-21T10:08:04;94244.66;;;7.23;74.76
72308;BME280;60257;42.638;23.376;2023-11-21T10:10:32;94249.75;;;7.45;74.31
72308;BME280;60257;42.638;23.376;2023-11-21T10:13:02;94245.38;;;7.65;74.20
72308;BME280;60257;42.638;23.376;2023-11-21T10:15:31;94247.53;;;7.84;72.60
72308;BME280;60257;42.638;23.376;2023-11-21T10:18:01;94237.09;;;8.10;72.34
72308;BME280;60257;42.638;23.376;2023-11-21T10:20:27;94235.16;;;8.23;71.44
72308;BME280;60257;42.638;23.376;2023-11-21T10:22:53;94228.47;;;8.32;70.67
72308;BME280;60257;42.638;23.376;2023-11-21T10:25:18;94224.78;;;8.16;71.00
72308;BME280;60257;42.638;23.376;2023-11-21T10:27:47;94220.81;;;8.26;71.15
72308;BME280;60257;42.638;23.376;2023-11-21T10:30:15;94219.56;;;8.47;69.78
72308;BME280;60257;42.638;23.376;2023-11-21T10:32:44;94219.00;;;8.42;70.30
72308;BME280;60257;42.638;23.376;2023-11-21T10:35:10;94223.75;;;8.57;70.14
72308;BME280;60257;42.638;23.376;2023-11-21T10:37:37;94218.16;;;8.66;69.33
72308;BME280;60257;42.638;23.376;2023-11-21T10:40:09;94218.75;;;8.47;68.52
72308;BME280;60257;42.638;23.376;2023-11-21T10:42:38;94207.88;;;8.35;69.21
72308;BME280;60257;42.638;23.376;2023-11-21T10:45:05;94207.59;;;8.52;68.92
72308;BME280;60257;42.638;23.376;2023-11-21T10:47:38;94197.22;;;8.58;68.19
72308;BME280;60257;42.638;23.376;2023-11-21T10:50:05;94206.72;;;8.36;68.64
72308;BME280;60257;42.638;23.376;2023-11-21T10:52:30;94214.69;;;8.41;68.36
72308;BME280;60257;42.638;23.376;2023-11-21T10:54:56;94202.69;;;8.58;68.34
72308;BME280;60257;42.638;23.376;2023-11-21T10:57:24;94196.50;;;8.73;67.77
72308;BME280;60257;42.638;23.376;2023-11-21T10:59:54;94203.00;;;8.68;66.73
72308;BME280;60257;42.638;23.376;2023-11-21T11:02:25;94195.50;;;8.65;67.22
72308;BME280;60257;42.638;23.376;2023-11-21T11:04:58;94183.72;;;8.77;67.23
72308;BME280;60257;42.638;23.376;2023-11-21T11:07:27;94192.56;;;8.86;66.41
72308;BME280;60257;42.638;23.376;2023-11-21T11:09:55;94181.63;;;8.86;66.37
72308;BME280;60257;42.638;23.376;2023-11-21T11:12:21;94175.97;;;8.79;66.66
72308;BME280;60257;42.638;23.376;2023-11-21T11:14:48;94189.25;;;8.93;65.92
72308;BME280;60257;42.638;23.376;2023-11-21T11:17:14;94191.28;;;8.96;66.18
72308;BME280;60257;42.638;23.376;2023-11-21T11:19:40;94173.59;;;9.05;66.19
72308;BME280;60257;42.638;23.376;2023-11-21T11:30:17;94147.84;;;9.22;66.36
72308;BME280;60257;42.638;23.376;2023-11-21T11:33:10;94148.41;;;9.27;65.47
72308;BME280;60257;42.638;23.376;2023-11-21T11:35:55;94128.91;;;9.29;64.91
72308;BME280;60257;42.638;23.376;2023-11-21T11:38:22;94128.72;;;9.38;65.09
72308;BME280;60257;42.638;23.376;2023-11-21T11:40:54;94117.50;;;9.27;64.93
72308;BME280;60257;42.638;23.376;2023-11-21T11:43:26;94134.09;;;9.34;65.20
72308;BME280;60257;42.638;23.376;2023-11-21T11:45:55;94117.25;;;9.32;65.01
72308;BME280;60257;42.638;23.376;2023-11-21T11:48:22;94122.16;;;9.11;65.28
72308;BME280;60257;42.638;23.376;2023-11-21T11:53:35;94149.16;;;9.12;66.06
72308;BME280;60257;42.638;23.376;2023-11-21T11:56:28;94149.78;;;9.06;66.76
72308;BME280;60257;42.638;23.376;2023-11-21T11:58:58;94145.00;;;9.03;67.25
72308;BME280;60257;42.638;23.376;2023-11-21T12:01:26;94140.66;;;9.02;67.20
72308;BME280;60257;42.638;23.376;2023-11-21T12:07:02;94129.81;;;8.90;68.11
72308;BME280;60257;42.638;23.376;2023-11-21T12:09:28;94140.63;;;8.86;68.53
72308;BME280;60257;42.638;23.376;2023-11-21T12:11:56;94140.88;;;8.81;68.71
72308;BME280;60257;42.638;23.376;2023-11-21T12:14:24;94147.94;;;8.82;70.29
72308;BME280;60257;42.638;23.376;2023-11-21T12:16:50;94148.97;;;8.77;70.95
72308;BME280;60257;42.638;23.376;2023-11-21T12:19:16;94146.03;;;8.70;70.88
72308;BME280;60257;42.638;23.376;2023-11-21T12:21:42;94151.16;;;8.72;70.41
72308;BME280;60257;42.638;23.376;2023-11-21T12:24:09;94155.19;;;8.62;71.18
72308;BME280;60257;42.638;23.376;2023-11-21T12:26:35;94153.50;;;8.58;71.94
72308;BME280;60257;42.638;23.376;2023-11-21T12:29:04;94133.47;;;8.54;72.05
72308;BME280;60257;42.638;23.376;2023-11-21T12:31:31;94139.38;;;8.56;73.02
72308;BME280;60257;42.638;23.376;2023-11-21T12:33:57;94138.13;;;8.53;73.19
72308;BME280;60257;42.638;23.376;2023-11-21T12:36:22;94144.72;;;8.52;71.52
72308;BME280;60257;42.638;23.376;2023-11-21T12:38:48;94142.25;;;8.47;71.99
72308;BME280;60257;42.638;23.376;2023-11-21T12:41:15;94151.50;;;8.42;71.80
72308;BME280;60257;42.638;23.376;2023-11-21T12:43:42;94144.66;;;8.36;71.90
72308;BME280;60257;42.638;23.376;2023-11-21T12:46:10;94130.44;;;8.31;72.60
72308;BME280;60257;42.638;23.376;2023-11-21T12:48:42;94130.56;;;8.22;72.98
72308;BME280;60257;42.638;23.376;2023-11-21T12:51:13;94145.72;;;8.20;72.14
72308;BME280;60257;42.638;23.376;2023-11-21T12:53:44;94143.66;;;8.17;73.05
72308;BME280;60257;42.638;23.376;2023-11-21T12:56:13;94120.81;;;8.09;72.29
72308;BME280;60257;42.638;23.376;2023-11-21T12:58:39;94107.16;;;8.09;72.27
72308;BME280;60257;42.638;23.376;2023-11-21T13:01:10;94102.28;;;8.02;72.77
72308;BME280;60257;42.638;23.376;2023-11-21T13:03:38;94103.66;;;7.84;74.22
72308;BME280;60257;42.638;23.376;2023-11-21T13:06:05;94111.84;;;7.96;74.20
72308;BME280;60257;42.638;23.376;2023-11-21T13:08:33;94101.00;;;8.00;74.57
72308;BME280;60257;42.638;23.376;2023-11-21T13:10:58;94098.41;;;8.03;73.98
72308;BME280;60257;42.638;23.376;2023-11-21T13:13:25;94102.03;;;8.07;73.47